createdAt,value
2019-02-27T00:00:58.733Z,11.50
2019-02-27T00:03:28.790Z,10.17
2019-02-27T00:05:55.492Z,9.90
2019-02-27T00:08:26.573Z,10.23
2019-02-27T00:10:52.669Z,10.37
2019-02-27T00:13:24.743Z,11.60
2019-02-27T00:15:49.459Z,9.43
2019-02-27T00:18:16.926Z,10.40
2019-02-27T00:20:44.424Z,9.93
2019-02-27T00:23:11.912Z,10.33
2019-02-27T00:25:39.396Z,9.93
2019-02-27T00:28:06.947Z,9.30
2019-02-27T00:30:37.987Z,9.57
2019-02-27T00:33:03.793Z,11.10
2019-02-27T00:35:31.307Z,10.60
2019-02-27T00:37:58.823Z,11.00
2019-02-27T00:40:26.327Z,11.50
2019-02-27T00:42:54.299Z,11.70
2019-02-27T00:45:22.490Z,11.07
2019-02-27T00:47:52.811Z,10.13
2019-02-27T00:50:19.349Z,11.90
2019-02-27T00:52:50.915Z,10.27
2019-02-27T00:55:16.072Z,10.87
2019-02-27T00:57:43.581Z,10.40
2019-02-27T01:00:13.553Z,11.07
2019-02-27T01:02:41.132Z,11.57
2019-02-27T01:05:09.422Z,11.37
2019-02-27T01:07:37.015Z,11.23
2019-02-27T01:10:05.544Z,10.03
2019-02-27T01:12:33.122Z,10.27
2019-02-27T01:15:00.609Z,10.83
2019-02-27T01:17:28.131Z,10.33
2019-02-27T01:19:55.613Z,10.87
2019-02-27T01:22:23.126Z,10.70
2019-02-27T01:24:50.680Z,11.00
2019-02-27T01:27:18.148Z,9.67
2019-02-27T01:29:45.629Z,10.53
2019-02-27T01:32:13.096Z,10.77
2019-02-27T01:34:44.253Z,10.20
2019-02-27T01:37:09.861Z,9.80
2019-02-27T01:39:37.346Z,9.83
2019-02-27T01:42:04.801Z,9.87
2019-02-27T01:44:32.300Z,9.83
2019-02-27T01:47:02.408Z,10.20
2019-02-27T01:49:29.363Z,9.77
2019-02-27T01:51:59.120Z,10.80
2019-02-27T01:54:26.131Z,9.47
2019-02-27T01:56:53.599Z,9.93
2019-02-27T01:59:21.253Z,10.13
2019-02-27T02:01:48.718Z,9.67
2019-02-27T02:04:20.064Z,10.77
2019-02-27T02:06:45.506Z,10.27
2019-02-27T02:09:46.212Z,9.97
2019-02-27T02:12:20.048Z,9.57
2019-02-27T02:15:27.901Z,10.53
2019-02-27T02:18:50.434Z,10.10
2019-02-27T02:21:58.518Z,10.33
2019-02-27T02:25:22.000Z,9.53
2019-02-27T02:28:32.995Z,8.97
2019-02-27T02:31:40.803Z,9.50
2019-02-27T02:34:53.232Z,9.10
2019-02-27T02:37:47.669Z,9.60
2019-02-27T02:40:52.869Z,9.60
2019-02-27T02:44:10.498Z,9.50
2019-02-27T02:47:20.998Z,9.57
2019-02-27T02:50:17.429Z,10.60
2019-02-27T02:53:16.401Z,9.47
2019-02-27T02:56:12.446Z,9.90
2019-02-27T02:59:24.403Z,10.10
2019-02-27T03:02:01.675Z,9.60
2019-02-27T03:05:23.221Z,9.53
2019-02-27T03:08:11.019Z,10.63
2019-02-27T03:10:53.378Z,9.20
2019-02-27T03:13:33.240Z,9.77
2019-02-27T03:16:14.699Z,9.90
2019-02-27T03:19:41.747Z,10.00
2019-02-27T03:22:40.413Z,9.57
2019-02-27T03:25:48.271Z,9.13
2019-02-27T03:28:33.004Z,9.57
2019-02-27T03:31:19.304Z,9.60
2019-02-27T03:34:10.456Z,10.63
2019-02-27T03:37:35.188Z,9.27
2019-02-27T03:40:32.853Z,9.20
2019-02-27T03:43:50.896Z,9.20
2019-02-27T03:47:09.014Z,9.23
2019-02-27T03:49:52.003Z,9.87
2019-02-27T03:53:00.450Z,9.60
2019-02-27T03:56:09.756Z,9.63
2019-02-27T03:59:05.597Z,9.77
2019-02-27T04:02:17.271Z,9.80
2019-02-27T04:05:07.498Z,10.20
2019-02-27T04:08:07.082Z,10.07
2019-02-27T04:10:32.196Z,9.97
2019-02-27T04:12:59.843Z,9.30
2019-02-27T04:15:27.429Z,10.53
2019-02-27T04:17:53.925Z,10.00
2019-02-27T04:20:21.427Z,9.70
2019-02-27T04:22:48.889Z,9.70
2019-02-27T04:25:16.442Z,10.60
2019-02-27T04:27:43.998Z,12.47
2019-02-27T04:30:14.811Z,10.37
2019-02-27T04:32:41.101Z,9.47
2019-02-27T04:35:08.662Z,10.17
2019-02-27T04:37:36.131Z,9.67
2019-02-27T04:40:03.856Z,9.33
2019-02-27T04:42:31.325Z,9.90
2019-02-27T04:44:58.863Z,10.37
2019-02-27T04:47:29.200Z,10.20
2019-02-27T04:49:58.421Z,11.13
2019-02-27T04:52:25.912Z,9.80
2019-02-27T04:54:53.444Z,10.10
2019-02-27T04:57:20.923Z,10.17
2019-02-27T04:59:49.818Z,9.93
2019-02-27T05:02:17.690Z,10.67
2019-02-27T05:04:45.242Z,10.37
2019-02-27T05:07:12.669Z,9.70
2019-02-27T05:09:40.208Z,9.93
2019-02-27T05:12:07.718Z,9.67
2019-02-27T05:14:35.184Z,10.27
2019-02-27T05:17:02.753Z,9.93
2019-02-27T05:19:30.242Z,9.63
2019-02-27T05:21:57.702Z,10.10
2019-02-27T05:24:25.194Z,9.53
2019-02-27T05:26:52.679Z,9.53
2019-02-27T05:29:20.191Z,10.23
2019-02-27T05:31:50.150Z,10.13
2019-02-27T05:34:17.038Z,9.37
2019-02-27T05:36:44.518Z,9.77
2019-02-27T05:39:12.052Z,9.40
2019-02-27T05:41:39.551Z,9.43
2019-02-27T05:44:07.003Z,9.93
2019-02-27T05:46:35.711Z,10.17
2019-02-27T05:49:03.783Z,9.03
2019-02-27T05:51:31.289Z,9.90
2019-02-27T05:53:59.184Z,9.73
2019-02-27T05:56:26.779Z,9.10
2019-02-27T05:58:56.364Z,9.60
2019-02-27T06:01:23.518Z,9.33
2019-02-27T06:03:52.246Z,8.90
2019-02-27T06:06:20.292Z,9.47
2019-02-27T06:08:47.707Z,8.00
2019-02-27T06:11:15.203Z,9.30
2019-02-27T06:13:45.003Z,8.50
2019-02-27T06:16:12.016Z,9.03
2019-02-27T06:18:39.499Z,9.33
2019-02-27T06:21:06.987Z,8.87
2019-02-27T06:23:35.390Z,8.93
2019-02-27T06:26:04.007Z,20.57
2019-02-27T06:28:31.478Z,15.30
2019-02-27T06:30:58.973Z,9.30
2019-02-27T06:33:26.545Z,9.80
2019-02-27T06:35:54.139Z,9.77
2019-02-27T06:38:25.355Z,8.63
2019-02-27T06:40:52.737Z,8.30
2019-02-27T06:43:20.225Z,9.23
2019-02-27T06:45:47.709Z,7.80
2019-02-27T06:48:15.199Z,8.40
2019-02-27T06:50:42.746Z,8.50
2019-02-27T06:53:10.269Z,9.10
2019-02-27T06:55:37.778Z,10.60
2019-02-27T06:58:05.557Z,10.27
2019-02-27T07:00:35.945Z,10.47
2019-02-27T07:03:02.280Z,9.53
2019-02-27T07:05:29.752Z,9.87
2019-02-27T07:07:57.284Z,10.00
2019-02-27T07:10:24.768Z,9.93
2019-02-27T07:12:54.748Z,10.90
2019-02-27T07:15:21.663Z,11.17
2019-02-27T07:17:49.162Z,10.53
2019-02-27T07:20:16.632Z,10.37
2019-02-27T07:22:46.522Z,10.17
2019-02-27T07:25:13.512Z,9.47
2019-02-27T07:27:41.011Z,11.03
2019-02-27T07:30:11.764Z,10.13
2019-02-27T07:32:39.338Z,10.10
2019-02-27T07:35:07.649Z,9.97
2019-02-27T07:37:35.114Z,10.03
2019-02-27T07:40:02.714Z,10.27
2019-02-27T07:42:32.101Z,10.53
2019-02-27T07:44:59.500Z,11.27
2019-02-27T07:47:27.002Z,10.90
2019-02-27T07:49:54.508Z,10.63
2019-02-27T07:52:22.018Z,10.17
2019-02-27T07:54:49.476Z,10.87
2019-02-27T07:57:17.051Z,10.73
2019-02-27T07:59:44.834Z,9.73
2019-02-27T08:02:12.353Z,10.87
2019-02-27T08:04:39.865Z,10.37
2019-02-27T08:07:10.078Z,10.30
2019-02-27T08:09:36.748Z,10.30
2019-02-27T08:12:04.267Z,10.90
2019-02-27T08:14:31.762Z,10.23
2019-02-27T08:16:59.356Z,11.10
2019-02-27T08:19:26.881Z,11.07
2019-02-27T08:21:54.325Z,10.30
2019-02-27T08:24:22.718Z,9.57
2019-02-27T08:26:51.116Z,34.73
2019-02-27T08:29:18.684Z,10.17
2019-02-27T08:31:46.159Z,10.13
2019-02-27T08:34:13.651Z,9.97
2019-02-27T08:36:41.140Z,10.03
2019-02-27T08:39:08.646Z,10.73
2019-02-27T08:41:36.200Z,9.10
2019-02-27T08:44:03.697Z,10.50
2019-02-27T08:46:33.989Z,10.97
2019-02-27T08:49:00.833Z,11.10
2019-02-27T08:51:28.352Z,10.30
2019-02-27T08:53:59.040Z,10.30
2019-02-27T08:56:25.338Z,10.77
2019-02-27T08:58:52.898Z,11.30
2019-02-27T09:01:21.770Z,11.00
2019-02-27T09:03:49.756Z,11.87
2019-02-27T09:06:20.431Z,11.13
2019-02-27T09:08:47.948Z,11.00
2019-02-27T09:11:15.544Z,10.87
2019-02-27T09:13:43.027Z,10.30
2019-02-27T09:16:10.574Z,10.50
2019-02-27T09:18:38.663Z,9.63
2019-02-27T09:21:06.161Z,10.00
2019-02-27T09:23:33.733Z,9.97
2019-02-27T09:26:02.811Z,9.13
2019-02-27T09:28:30.477Z,8.63
2019-02-27T09:31:03.339Z,9.50
2019-02-27T09:33:27.269Z,9.23
2019-02-27T09:35:54.814Z,9.50
2019-02-27T09:38:24.364Z,9.20
2019-02-27T09:40:51.834Z,9.57
2019-02-27T09:43:19.337Z,19.27
2019-02-27T09:45:47.173Z,10.33
2019-02-27T09:48:14.759Z,9.07
2019-02-27T09:50:47.728Z,8.90
2019-02-27T09:53:15.003Z,8.97
2019-02-27T09:55:42.551Z,8.67
2019-02-27T09:58:11.512Z,8.70
2019-02-27T10:00:44.266Z,9.63
2019-02-27T10:03:11.891Z,7.87
2019-02-27T10:05:40.848Z,8.47
2019-02-27T10:08:09.606Z,8.60
2019-02-27T10:10:37.147Z,9.20
2019-02-27T10:13:04.619Z,9.47
2019-02-27T10:15:34.242Z,10.27
2019-02-27T10:18:01.570Z,8.70
2019-02-27T10:20:29.096Z,8.43
2019-02-27T10:22:56.711Z,9.50
2019-02-27T10:25:24.278Z,9.30
2019-02-27T10:27:51.752Z,9.90
2019-02-27T10:30:19.254Z,9.43
2019-02-27T10:32:46.783Z,9.93
2019-02-27T10:35:14.941Z,9.70
2019-02-27T10:37:42.526Z,9.53
2019-02-27T10:40:12.096Z,9.50
2019-02-27T10:42:39.678Z,9.37
2019-02-27T10:45:10.146Z,8.73
2019-02-27T10:47:39.809Z,8.50
2019-02-27T10:50:07.461Z,9.37
2019-02-27T10:52:34.918Z,9.70
2019-02-27T10:55:02.439Z,10.67
2019-02-27T10:57:31.873Z,10.03
2019-02-27T10:59:59.218Z,9.63
2019-02-27T11:02:26.755Z,9.27
2019-02-27T11:04:54.290Z,8.77
2019-02-27T11:07:22.052Z,8.33
2019-02-27T11:09:49.547Z,8.43
2019-02-27T11:12:17.085Z,9.40
2019-02-27T11:14:44.590Z,8.47
2019-02-27T11:17:12.106Z,8.53
2019-02-27T11:19:39.621Z,8.53
2019-02-27T11:22:07.104Z,6.90
2019-02-27T11:24:34.593Z,7.97
2019-02-27T11:27:03.421Z,7.40
2019-02-27T11:29:31.378Z,7.50
2019-02-27T11:31:59.115Z,8.23
2019-02-27T11:34:26.585Z,7.93
2019-02-27T11:36:56.414Z,8.03
2019-02-27T11:39:24.051Z,7.70
2019-02-27T11:41:51.551Z,7.87
2019-02-27T11:44:19.105Z,7.67
2019-02-27T11:46:46.573Z,6.30
2019-02-27T11:49:14.059Z,6.30
2019-02-27T11:51:41.604Z,6.50
2019-02-27T11:54:09.193Z,5.70
2019-02-27T11:56:36.722Z,5.27
2019-02-27T11:59:04.174Z,6.80
2019-02-27T12:01:32.237Z,6.17
2019-02-27T12:03:59.783Z,4.10
2019-02-27T12:06:27.287Z,4.17
2019-02-27T12:08:59.549Z,4.10
2019-02-27T12:11:24.429Z,4.83
2019-02-27T12:13:51.959Z,4.70
2019-02-27T12:16:19.455Z,5.63
2019-02-27T12:18:46.966Z,5.17
2019-02-27T12:21:14.560Z,5.77
2019-02-27T12:23:44.218Z,5.17
2019-02-27T12:26:11.268Z,5.17
2019-02-27T12:28:38.768Z,5.63
2019-02-27T12:31:08.172Z,4.77
2019-02-27T12:33:35.942Z,4.60
2019-02-27T12:36:03.421Z,5.03
2019-02-27T12:38:31.344Z,5.57
2019-02-27T12:40:59.251Z,4.80
2019-02-27T12:43:26.724Z,5.10
2019-02-27T12:45:54.206Z,5.03
2019-02-27T12:48:21.736Z,4.80
2019-02-27T12:50:49.228Z,4.10
2019-02-27T12:53:20.719Z,5.60
2019-02-27T12:55:46.023Z,4.50
2019-02-27T12:58:13.905Z,4.47
2019-02-27T13:00:42.501Z,4.83
2019-02-27T13:03:10.581Z,4.20
2019-02-27T13:05:38.091Z,5.13
2019-02-27T13:08:05.733Z,3.70
2019-02-27T13:10:34.268Z,4.50
2019-02-27T13:13:01.919Z,3.90
2019-02-27T13:15:29.527Z,4.20
2019-02-27T13:17:58.035Z,4.47
2019-02-27T13:20:25.942Z,4.00
2019-02-27T13:22:53.437Z,3.50
2019-02-27T13:25:21.399Z,3.30
2019-02-27T13:27:50.397Z,4.07
2019-02-27T13:30:18.573Z,3.83
2019-02-27T13:32:46.065Z,3.50
2019-02-27T13:35:14.040Z,3.63
2019-02-27T13:37:44.681Z,3.67
2019-02-27T13:40:13.754Z,3.87
2019-02-27T13:42:41.217Z,4.23
2019-02-27T13:45:13.385Z,3.70
2019-02-27T13:47:41.054Z,3.77
2019-02-27T13:50:09.065Z,3.97
2019-02-27T13:52:36.446Z,4.07
2019-02-27T13:55:04.067Z,4.70
2019-02-27T13:57:31.542Z,4.37
2019-02-27T13:59:59.243Z,4.97
2019-02-27T14:02:26.767Z,4.87
2019-02-27T14:04:57.280Z,4.00
2019-02-27T14:07:24.211Z,3.60
2019-02-27T14:09:51.802Z,4.93
2019-02-27T14:12:19.721Z,3.20
2019-02-27T14:14:50.223Z,3.23
2019-02-27T14:17:16.599Z,4.27
2019-02-27T14:19:44.130Z,3.90
2019-02-27T14:22:11.641Z,3.90
2019-02-27T14:24:39.222Z,4.30
2019-02-27T14:27:06.740Z,3.40
2019-02-27T14:29:34.242Z,3.00
2019-02-27T14:32:01.762Z,3.23
2019-02-27T14:34:29.245Z,3.13
2019-02-27T14:36:56.728Z,3.70
2019-02-27T14:39:24.232Z,3.67
2019-02-27T14:41:51.702Z,3.30
2019-02-27T14:44:19.206Z,3.00
2019-02-27T14:46:46.711Z,9.30
2019-02-27T14:49:14.292Z,3.70
2019-02-27T14:51:41.818Z,3.20
2019-02-27T14:54:09.302Z,3.67
2019-02-27T14:56:36.827Z,3.50
2019-02-27T14:59:04.342Z,3.83
2019-02-27T15:01:31.852Z,4.10
2019-02-27T15:04:00.419Z,3.37
2019-02-27T15:06:28.751Z,3.30
2019-02-27T15:09:03.275Z,5.10
2019-02-27T15:11:28.585Z,3.93
2019-02-27T15:13:56.070Z,3.20
2019-02-27T15:16:23.638Z,3.00
2019-02-27T15:18:55.081Z,3.23
2019-02-27T15:21:20.473Z,4.17
2019-02-27T15:23:47.987Z,3.70
2019-02-27T15:26:16.411Z,3.00
2019-02-27T15:28:44.539Z,3.30
2019-02-27T15:31:12.047Z,3.43
2019-02-27T15:33:39.556Z,2.60
2019-02-27T15:36:07.087Z,2.90
2019-02-27T15:38:34.545Z,3.07
2019-02-27T15:41:03.313Z,3.33
2019-02-27T15:43:30.976Z,3.07
2019-02-27T15:45:58.452Z,3.17
2019-02-27T15:48:25.956Z,3.10
2019-02-27T15:50:56.284Z,3.40
2019-02-27T15:53:22.742Z,3.47
2019-02-27T15:55:50.252Z,3.70
2019-02-27T15:58:17.787Z,3.43
2019-02-27T16:00:45.373Z,3.13
2019-02-27T16:03:12.866Z,3.57
2019-02-27T16:05:40.342Z,3.60
2019-02-27T16:08:07.884Z,3.60
2019-02-27T16:10:35.387Z,3.30
2019-02-27T16:13:02.883Z,4.13
2019-02-27T16:15:30.403Z,3.93
2019-02-27T16:17:57.901Z,4.23
2019-02-27T16:20:25.998Z,4.30
2019-02-27T16:22:53.511Z,3.60
2019-02-27T16:25:21.328Z,3.80
2019-02-27T16:27:48.975Z,3.50
2019-02-27T16:30:21.851Z,4.30
2019-02-27T16:32:50.040Z,4.00
2019-02-27T16:35:17.697Z,3.50
2019-02-27T16:37:45.241Z,3.10
2019-02-27T16:40:17.602Z,2.60
2019-02-27T16:42:43.019Z,4.00
2019-02-27T16:45:12.081Z,4.73
2019-02-27T16:47:41.341Z,4.43
2019-02-27T16:50:17.324Z,3.97
2019-02-27T16:52:45.073Z,3.97
2019-02-27T16:55:14.128Z,3.67
2019-02-27T16:57:41.627Z,4.07
2019-02-27T17:00:10.476Z,4.00
2019-02-27T17:02:38.369Z,5.30
2019-02-27T17:05:08.869Z,6.03
2019-02-27T17:07:36.253Z,7.63
2019-02-27T17:10:04.693Z,4.50
2019-02-27T17:12:32.232Z,5.13
2019-02-27T17:14:59.777Z,6.70
2019-02-27T17:17:27.290Z,4.93
2019-02-27T17:19:54.785Z,5.03
2019-02-27T17:22:22.442Z,4.27
2019-02-27T17:24:52.180Z,5.90
2019-02-27T17:27:19.552Z,5.13
2019-02-27T17:29:47.161Z,6.60
2019-02-27T17:32:14.685Z,5.67
2019-02-27T17:34:42.248Z,5.90
2019-02-27T17:37:09.738Z,6.17
2019-02-27T17:39:37.398Z,4.63
2019-02-27T17:42:05.008Z,5.23
2019-02-27T17:44:35.277Z,6.60
2019-02-27T17:47:01.834Z,6.20
2019-02-27T17:49:29.371Z,6.73
2019-02-27T17:51:56.870Z,6.27
2019-02-27T17:54:24.402Z,6.83
2019-02-27T17:56:51.958Z,7.30
2019-02-27T17:59:19.503Z,6.60
2019-02-27T18:01:47.132Z,6.17
2019-02-27T18:04:15.146Z,6.47
2019-02-27T18:06:42.576Z,7.07
2019-02-27T18:09:10.683Z,6.90
2019-02-27T18:11:38.484Z,6.57
2019-02-27T18:14:08.878Z,7.17
2019-02-27T18:16:35.542Z,6.73
2019-02-27T18:19:03.093Z,6.47
2019-02-27T18:21:33.401Z,6.30
2019-02-27T18:24:00.107Z,8.50
2019-02-27T18:26:27.708Z,7.90
2019-02-27T18:28:55.244Z,6.30
2019-02-27T18:31:26.558Z,6.20
2019-02-27T18:33:52.036Z,6.57
2019-02-27T18:36:19.566Z,6.73
2019-02-27T18:38:49.212Z,5.63
2019-02-27T18:41:16.489Z,7.73
2019-02-27T18:43:44.038Z,6.43
2019-02-27T18:46:11.612Z,6.20
2019-02-27T18:48:43.532Z,6.43
2019-02-27T18:51:08.800Z,7.57
2019-02-27T18:53:36.353Z,6.63
2019-02-27T18:56:03.851Z,8.13
2019-02-27T18:58:31.423Z,6.73
2019-02-27T19:00:59.000Z,5.93
2019-02-27T19:03:26.721Z,6.07
2019-02-27T19:05:54.228Z,6.33
2019-02-27T19:08:21.729Z,5.83
2019-02-27T19:10:49.312Z,7.20
2019-02-27T19:13:16.909Z,9.60
2019-02-27T19:15:46.264Z,11.83
2019-02-27T19:18:13.831Z,9.60
2019-02-27T19:20:41.503Z,7.23
2019-02-27T19:23:09.032Z,11.17
2019-02-27T19:25:36.622Z,7.97
2019-02-27T19:28:04.332Z,7.60
2019-02-27T19:30:31.949Z,7.50
2019-02-27T19:33:01.911Z,9.40
2019-02-27T19:35:28.848Z,8.60
2019-02-27T19:37:56.407Z,9.73
2019-02-27T19:40:23.916Z,9.83
2019-02-27T19:42:56.335Z,11.87
2019-02-27T19:45:23.996Z,10.30
2019-02-27T19:47:54.625Z,9.67
2019-02-27T19:50:20.933Z,9.43
2019-02-27T19:52:48.493Z,9.67
2019-02-27T19:55:16.249Z,10.90
2019-02-27T19:57:43.991Z,11.17
2019-02-27T20:00:14.110Z,11.53
2019-02-27T20:02:41.793Z,10.10
2019-02-27T20:05:09.452Z,9.87
2019-02-27T20:07:36.974Z,10.40
2019-02-27T20:10:05.601Z,9.47
2019-02-27T20:12:33.139Z,10.33
2019-02-27T20:15:00.722Z,9.90
2019-02-27T20:17:32.807Z,10.33
2019-02-27T20:19:57.595Z,11.63
2019-02-27T20:22:25.186Z,10.80
2019-02-27T20:24:52.850Z,11.07
2019-02-27T20:27:20.370Z,11.00
2019-02-27T20:29:47.929Z,12.17
2019-02-27T20:32:15.461Z,11.37
2019-02-27T20:38:21.713Z,12.00
2019-02-27T20:40:49.270Z,13.17
2019-02-27T20:43:16.788Z,13.27
2019-02-27T20:45:44.355Z,12.27
2019-02-27T20:48:12.001Z,12.93
2019-02-27T20:50:40.835Z,12.47
2019-02-27T20:53:08.683Z,13.37
2019-02-27T20:55:36.226Z,13.07
2019-02-27T20:58:03.830Z,13.97
2019-02-27T21:00:35.913Z,13.97
2019-02-27T21:03:02.641Z,12.30
2019-02-27T21:05:30.539Z,12.83
2019-02-27T21:08:02.040Z,12.57
2019-02-27T21:10:27.588Z,11.83
2019-02-27T21:12:55.136Z,11.67
2019-02-27T21:15:24.781Z,12.60
2019-02-27T21:17:52.025Z,11.70
2019-02-27T21:20:19.558Z,12.03
2019-02-27T21:22:47.142Z,11.37
2019-02-27T21:25:15.030Z,10.77
2019-02-27T21:27:43.228Z,11.87
2019-02-27T21:30:17.855Z,12.77
2019-02-27T21:32:42.432Z,12.47
2019-02-27T21:35:10.061Z,11.73
2019-02-27T21:37:37.574Z,11.17
2019-02-27T21:40:05.104Z,13.07
2019-02-27T21:42:32.815Z,11.53
2019-02-27T21:45:03.682Z,12.07
2019-02-27T21:47:30.612Z,12.87
2019-02-27T21:49:58.141Z,13.30
2019-02-27T21:52:25.689Z,13.00
2019-02-27T21:54:53.211Z,12.97
2019-02-27T21:57:22.881Z,14.70
2019-02-27T21:59:50.104Z,13.73
2019-02-27T22:02:17.606Z,13.97
2019-02-27T22:04:45.135Z,14.37
2019-02-27T22:07:12.621Z,13.73
2019-02-27T22:09:40.111Z,12.93
2019-02-27T22:12:07.628Z,12.73
2019-02-27T22:14:35.151Z,12.03
2019-02-27T22:17:05.166Z,13.80
2019-02-27T22:19:31.956Z,12.90
2019-02-27T22:21:59.490Z,14.00
2019-02-27T22:24:28.602Z,14.60
2019-02-27T22:26:56.057Z,12.87
2019-02-27T22:29:25.219Z,13.60
2019-02-27T22:31:52.886Z,12.83
2019-02-27T22:34:20.350Z,15.97
2019-02-27T22:36:47.907Z,14.20
2019-02-27T22:39:15.404Z,13.73
2019-02-27T22:41:43.173Z,12.73
2019-02-27T22:44:10.641Z,12.47
2019-02-27T22:46:38.119Z,12.10
2019-02-27T22:49:06.476Z,11.67
2019-02-27T22:51:33.997Z,11.67
2019-02-27T22:54:02.165Z,11.23
2019-02-27T22:56:30.410Z,12.73
2019-02-27T22:58:59.454Z,12.03
2019-02-27T23:01:37.576Z,13.60
2019-02-27T23:04:07.438Z,12.10
2019-02-27T23:06:35.262Z,12.27
2019-02-27T23:09:04.685Z,13.77
2019-02-27T23:11:34.193Z,12.57
2019-02-27T23:14:01.467Z,13.30
2019-02-27T23:16:29.789Z,13.53
2019-02-27T23:18:58.074Z,12.40
2019-02-27T23:21:26.566Z,11.50
2019-02-27T23:24:10.143Z,11.67
2019-02-27T23:26:34.615Z,12.67
2019-02-27T23:29:02.121Z,13.63
2019-02-27T23:31:29.587Z,13.83
2019-02-27T23:33:57.074Z,13.77
2019-02-27T23:36:24.830Z,13.47
2019-02-27T23:38:52.322Z,13.07
2019-02-27T23:41:22.577Z,12.67
2019-02-27T23:43:49.113Z,12.90
2019-02-27T23:46:18.484Z,12.33
2019-02-27T23:48:45.968Z,12.17
2019-02-27T23:51:16.774Z,12.33
2019-02-27T23:53:42.823Z,12.77
2019-02-27T23:56:10.324Z,12.83
2019-02-27T23:58:38.050Z,12.40
